Time;durP1;ratioP1;P1;durP2;ratioP2;P2;SDS_P1;SDS_P2;PMS_P1;PMS_P2;Temp;Humidity;BMP_temperature;BMP_pressure;BME280_temperature;BME280_humidity;BME280_pressure;Samples;Min_cycle;Max_cycle;Signal;HPM_P1;HPM_P2
2024/03/07 00:02:14;;;;;;;;;0.00;0.00;;;;;11.50;100.00;101969.00;5138863;27;47047;-80
2024/03/07 00:04:40;;;;;;;;;0.00;0.00;;;;;11.56;100.00;101970.69;5139096;27;45288;-81
2024/03/07 00:07:07;;;;;;;;;0.00;0.00;;;;;11.48;100.00;101975.09;5138727;27;45498;-81
2024/03/07 00:09:33;;;;;;;;;0.00;0.00;;;;;11.45;100.00;101969.97;5118783;27;45594;-81
2024/03/07 00:11:59;;;;;;;;;0.00;0.00;;;;;11.41;100.00;101975.19;5138307;27;46492;-81
2024/03/07 00:14:27;;;;;;;;;0.00;0.00;;;;;11.28;100.00;101968.41;5120410;27;45524;-81
2024/03/07 00:16:56;;;;;;;;;0.00;0.00;;;;;11.36;100.00;101977.00;5138903;27;45369;-81
2024/03/07 00:19:21;;;;;;;;;0.00;0.00;;;;;11.31;100.00;101967.50;5119209;27;45205;-80
2024/03/07 00:21:47;;;;;;;;;0.00;0.00;;;;;11.30;100.00;101968.41;5138336;27;47652;-80
2024/03/07 00:24:14;;;;;;;;;0.00;0.00;;;;;11.26;100.00;101970.19;5119982;27;45331;-81
2024/03/07 00:26:40;;;;;;;;;0.00;0.00;;;;;11.16;100.00;101960.72;5138645;27;45342;-81
2024/03/07 00:29:06;;;;;;;;;0.00;0.00;;;;;11.09;100.00;101964.28;5129511;27;45523;-81
2024/03/07 00:31:32;;;;;;;;;0.00;0.00;;;;;11.27;100.00;101958.00;5117721;27;46100;-81
2024/03/07 00:33:58;;;;;;;;;0.00;0.00;;;;;11.23;100.00;101963.25;5117665;27;45372;-80
2024/03/07 00:36:23;;;;;;;;;0.00;0.00;;;;;11.24;100.00;101958.91;5113184;27;45574;-80
2024/03/07 00:38:48;;;;;;;;;3.00;3.00;;;;;11.25;100.00;101963.22;5119139;27;63220;-81
2024/03/07 00:41:15;;;;;;;;;0.00;0.00;;;;;11.18;100.00;101964.19;5118578;27;72893;-81
2024/03/07 00:43:41;;;;;;;;;0.00;0.00;;;;;11.16;100.00;101952.91;5138692;27;45370;-81
2024/03/07 00:46:07;;;;;;;;;0.00;0.00;;;;;11.13;100.00;101952.97;5119903;27;45438;-81
2024/03/07 00:48:32;;;;;;;;;9.00;4.00;;;;;11.11;100.00;101958.19;5118954;27;63773;-80
2024/03/07 00:50:57;;;;;;;;;0.00;0.00;;;;;11.09;100.00;101956.47;5137343;27;64464;-81
2024/03/07 00:53:23;;;;;;;;;0.00;0.00;;;;;11.08;100.00;101960.81;5118722;27;45414;-81
2024/03/07 00:55:48;;;;;;;;;0.00;0.00;;;;;11.08;100.00;101963.44;5137168;27;64814;-80
2024/03/07 00:58:13;;;;;;;;;0.00;0.00;;;;;11.08;100.00;101958.22;5138220;27;45450;-81
2024/03/07 01:00:42;;;;;;;;;0.00;0.00;;;;;11.05;100.00;101966.09;5137375;27;69525;-81
2024/03/07 01:03:10;;;;;;;;;0.00;0.00;;;;;11.04;100.00;101957.38;5137965;27;45433;-80
2024/03/07 01:05:36;;;;;;;;;0.00;0.00;;;;;11.03;100.00;101958.28;5138003;27;45289;-80
2024/03/07 01:08:01;;;;;;;;;0.00;0.00;;;;;11.00;100.00;101955.72;5137552;27;45463;-81
2024/03/07 01:10:28;;;;;;;;;0.00;0.00;;;;;11.00;100.00;101952.25;5117928;27;45412;-80
2024/03/07 01:12:57;;;;;;;;;0.00;0.00;;;;;11.14;100.00;101960.75;5137738;27;45354;-81
2024/03/07 01:15:22;;;;;;;;;0.00;0.00;;;;;11.01;100.00;101951.34;5137811;27;45436;-81
2024/03/07 01:17:48;;;;;;;;;0.00;0.00;;;;;10.96;100.00;101951.41;5138019;27;45462;-81
2024/03/07 01:20:13;;;;;;;;;0.00;0.00;;;;;10.96;100.00;101948.81;5136341;27;69836;-80
2024/03/07 01:22:38;;;;;;;;;0.00;0.00;;;;;10.93;100.00;101942.78;5138166;27;45353;-81
2024/03/07 01:25:06;;;;;;;;;0.00;0.00;;;;;10.87;100.00;101945.44;5136353;27;61387;-80
2024/03/07 01:27:31;;;;;;;;;0.00;0.00;;;;;10.89;100.00;101935.88;5138540;27;45294;-80
2024/03/07 01:29:57;;;;;;;;;0.00;0.00;;;;;10.87;100.00;101938.50;5121463;27;68899;-81
2024/03/07 01:32:22;;;;;;;;;0.00;0.00;;;;;10.90;100.00;101929.78;5118363;27;45324;-81
2024/03/07 01:34:47;;;;;;;;;0.00;0.00;;;;;10.90;100.00;101925.44;5117467;27;59562;-81
2024/03/07 01:37:13;;;;;;;;;0.00;0.00;;;;;10.92;100.00;101930.63;5116193;27;62621;-81
2024/03/07 01:39:38;;;;;;;;;0.00;0.00;;;;;10.84;100.00;101926.34;5115373;27;71187;-81
2024/03/07 01:42:04;;;;;;;;;0.00;0.00;;;;;10.66;100.00;101916.16;5116129;27;70410;-81
2024/03/07 01:44:31;;;;;;;;;0.00;0.00;;;;;10.71;100.00;101916.09;5130526;27;45380;-80
2024/03/07 01:46:57;;;;;;;;;0.00;0.00;;;;;10.65;100.00;101910.06;5119131;27;45427;-80
2024/03/07 01:49:23;;;;;;;;;0.00;0.00;;;;;10.57;100.00;101905.84;5118400;27;45562;-81
2024/03/07 01:51:48;;;;;;;;;0.00;0.00;;;;;10.52;100.00;101898.06;5136506;27;63819;-81
2024/03/07 01:54:13;;;;;;;;;0.00;0.00;;;;;10.46;100.00;101891.16;5136513;27;64886;-81
2024/03/07 01:56:40;;;;;;;;;0.00;0.00;;;;;10.42;100.00;101893.84;5117881;27;63418;-81
2024/03/07 01:59:07;;;;;;;;;0.00;0.00;;;;;10.40;100.00;101885.16;5118853;27;45444;-81
2024/03/07 02:01:32;;;;;;;;;0.00;0.00;;;;;10.31;100.00;101880.03;5118002;27;45500;-81
2024/03/07 02:03:58;;;;;;;;;0.00;0.00;;;;;10.33;100.00;101881.75;5119005;27;45586;-81
2024/03/07 02:06:25;;;;;;;;;0.00;0.00;;;;;10.27;100.00;101882.66;5117482;27;63140;-80
2024/03/07 02:08:50;;;;;;;;;0.00;0.00;;;;;10.24;100.00;101882.66;5118206;27;46446;-81
2024/03/07 02:11:16;;;;;;;;;0.00;0.00;;;;;10.21;100.00;101874.88;5118573;27;45527;-81
2024/03/07 02:13:41;;;;;;;;;0.00;0.00;;;;;10.13;100.00;101871.50;5137625;27;45395;-81
2024/03/07 02:16:07;;;;;;;;;0.00;0.00;;;;;10.18;100.00;101871.47;5136603;27;59537;-81
2024/03/07 02:18:33;;;;;;;;;0.00;0.00;;;;;10.44;100.00;101866.03;5117494;27;46041;-81
2024/03/07 02:20:59;;;;;;;;;0.00;0.00;;;;;10.33;100.00;101871.34;5118372;27;45640;-81
2024/03/07 02:23:25;;;;;;;;;0.00;0.00;;;;;10.40;100.00;101862.63;5136663;27;45477;-81
2024/03/07 02:25:50;;;;;;;;;0.00;0.00;;;;;10.27;100.00;101860.97;5118396;27;45498;-81
2024/03/07 02:28:16;;;;;;;;;0.00;0.00;;;;;10.24;100.00;101858.41;5115346;27;73844;-81
2024/03/07 02:30:41;;;;;;;;;0.00;0.00;;;;;10.25;100.00;101855.78;5115465;27;64969;-81
2024/03/07 02:33:06;;;;;;;;;0.00;0.00;;;;;10.24;100.00;101856.66;5119434;27;45350;-81
2024/03/07 02:35:37;;;;;;;;;0.00;0.00;;;;;10.30;100.00;101853.13;5120838;27;45483;-80
2024/03/07 02:38:05;;;;;;;;;7.00;7.00;;;;;10.38;100.00;101853.97;5139555;27;45491;-81
2024/03/07 02:40:31;;;;;;;;;0.00;0.00;;;;;10.35;100.00;101845.31;5121686;27;45421;-81
2024/03/07 02:42:57;;;;;;;;;0.00;0.00;;;;;10.34;100.00;101839.22;5140444;27;45188;-81
2024/03/07 02:45:23;;;;;;;;;0.00;0.00;;;;;10.33;100.00;101839.28;5140410;27;45370;-80
2024/03/07 02:47:48;;;;;;;;;0.00;0.00;;;;;10.33;100.00;101831.47;5140574;27;45304;-81
2024/03/07 02:50:14;;;;;;;;;0.00;0.00;;;;;10.33;100.00;101827.09;5138931;27;45379;-80
2024/03/07 02:52:40;;;;;;;;;0.00;0.00;;;;;10.28;100.00;101829.72;5139815;27;45407;-80
2024/03/07 02:55:06;;;;;;;;;0.00;0.00;;;;;10.28;100.00;101823.66;5140629;27;45502;-81
2024/03/07 02:57:31;;;;;;;;;0.00;0.00;;;;;10.28;100.00;101831.47;5121437;27;45496;-81
2024/03/07 02:59:57;;;;;;;;;0.00;0.00;;;;;10.41;100.00;101830.47;5140341;27;45533;-81
2024/03/07 03:02:22;;;;;;;;;0.00;0.00;;;;;10.27;100.00;101833.22;5139448;27;64497;-81
2024/03/07 03:04:47;;;;;;;;;0.00;0.00;;;;;10.24;100.00;101828.03;5121115;27;65479;-81
2024/03/07 03:07:13;;;;;;;;;0.00;0.00;;;;;10.23;100.00;101825.44;5138344;27;45388;-81
2024/03/07 03:09:43;;;;;;;;;0.00;0.00;;;;;10.22;100.00;101819.38;5120551;27;56433;-81
2024/03/07 03:12:08;;;;;;;;;0.00;0.00;;;;;10.19;100.00;101826.34;5140019;27;45432;-81
2024/03/07 03:14:34;;;;;;;;;0.00;0.00;;;;;10.19;100.00;101832.41;5139997;27;45498;-81
2024/03/07 03:17:00;;;;;;;;;0.00;0.00;;;;;10.16;100.00;101823.75;5139765;27;46022;-81
2024/03/07 03:19:26;;;;;;;;;0.00;0.00;;;;;10.15;100.00;101820.31;5139914;27;45360;-81
2024/03/07 03:21:52;;;;;;;;;0.00;0.00;;;;;10.17;100.00;101820.31;5138528;27;45353;-81
2024/03/07 03:24:17;;;;;;;;;0.00;0.00;;;;;10.16;100.00;101813.34;5139769;27;45318;-81
2024/03/07 03:26:42;;;;;;;;;0.00;0.00;;;;;10.13;100.00;101814.25;5120862;27;48379;-81
2024/03/07 03:29:09;;;;;;;;;0.00;0.00;;;;;10.14;100.00;101808.19;5110852;27;69650;-80
2024/03/07 03:31:35;;;;;;;;;0.00;0.00;;;;;10.12;100.00;101809.94;5118677;27;45249;-81
2024/03/07 03:34:01;;;;;;;;;0.00;0.00;;;;;10.10;100.00;101816.88;5118877;27;45451;-81
2024/03/07 03:36:26;;;;;;;;;0.00;0.00;;;;;10.06;100.00;101812.59;5117394;27;45419;-81
2024/03/07 03:38:51;;;;;;;;;0.00;0.00;;;;;10.05;100.00;101801.34;5119558;27;45405;-81
2024/03/07 03:41:17;;;;;;;;;0.00;0.00;;;;;10.11;100.00;101804.75;5119905;27;64030;-82
2024/03/07 03:43:42;;;;;;;;;0.00;0.00;;;;;10.12;100.00;101803.88;5138966;27;45308;-81
2024/03/07 03:46:11;;;;;;;;;0.00;0.00;;;;;10.13;100.00;101808.22;5140335;27;45360;-81
2024/03/07 03:48:40;;;;;;;;;0.00;0.00;;;;;10.08;100.00;101803.03;5121989;27;45391;-81
2024/03/07 03:51:09;;;;;;;;;0.00;0.00;;;;;10.05;100.00;101809.13;5140307;27;45373;-80
2024/03/07 03:53:37;;;;;;;;;0.00;0.00;;;;;10.04;100.00;101810.00;5139803;27;45563;-81
2024/03/07 03:56:04;;;;;;;;;0.00;0.00;;;;;10.00;100.00;101804.84;5122012;27;47328;-81
2024/03/07 03:58:30;;;;;;;;;0.00;0.00;;;;;9.99;100.00;101806.59;5139391;27;45475;-81
2024/03/07 04:00:55;;;;;;;;;0.00;0.00;;;;;10.00;100.00;101810.06;5139192;27;45381;-81
2024/03/07 04:03:21;;;;;;;;;0.00;0.00;;;;;9.99;100.00;101809.22;5120080;27;62376;-81
2024/03/07 04:05:46;;;;;;;;;0.00;0.00;;;;;9.99;100.00;101800.53;5137954;27;71478;-81
2024/03/07 04:08:12;;;;;;;;;0.00;0.00;;;;;9.96;100.00;101804.03;5138601;27;45326;-81
2024/03/07 04:10:38;;;;;;;;;0.00;0.00;;;;;9.94;100.00;101803.19;5138209;27;45475;-82
2024/03/07 04:13:04;;;;;;;;;0.00;0.00;;;;;9.89;100.00;101792.81;5138931;27;45513;-81
2024/03/07 04:15:31;;;;;;;;;0.00;0.00;;;;;9.84;100.00;101799.81;5138872;27;45440;-81
2024/03/07 04:17:57;;;;;;;;;0.00;0.00;;;;;9.86;100.00;101797.16;5139095;27;45423;-81
2024/03/07 04:20:22;;;;;;;;;0.00;0.00;;;;;9.79;100.00;101800.72;5138173;27;59659;-81
2024/03/07 04:22:48;;;;;;;;;0.00;0.00;;;;;9.77;100.00;101797.25;5102837;27;45468;-81
2024/03/07 04:25:14;;;;;;;;;0.00;0.00;;;;;9.77;100.00;101795.53;5120841;27;46346;-81
2024/03/07 04:27:40;;;;;;;;;0.00;0.00;;;;;9.72;100.00;101793.84;5119018;27;45392;-81
2024/03/07 04:30:11;;;;;;;;;0.00;0.00;;;;;9.71;100.00;101790.38;5121315;27;45443;-80
2024/03/07 04:32:37;;;;;;;;;0.00;0.00;;;;;9.66;100.00;101785.22;5099465;27;45544;-81
2024/03/07 04:35:07;;;;;;;;;0.00;0.00;;;;;9.67;100.00;101788.66;5117489;27;46279;-81
2024/03/07 04:37:41;;;;;;;;;0.00;0.00;;;;;9.50;100.00;101794.00;5117608;27;45358;-81
2024/03/07 04:40:18;;;;;;;;;0.00;0.00;;;;;9.48;100.00;101790.56;5118001;27;45415;-81
2024/03/07 04:42:45;;;;;;;;;0.00;0.00;;;;;9.45;100.00;101787.97;5100702;27;45549;-81
2024/03/07 04:45:13;;;;;;;;;0.00;0.00;;;;;9.67;100.00;101784.31;5136344;27;46502;-81
2024/03/07 04:47:42;;;;;;;;;0.00;0.00;;;;;9.60;100.00;101787.00;5137903;27;45443;-81
2024/03/07 04:50:10;;;;;;;;;0.00;0.00;;;;;9.48;100.00;101777.56;5138189;27;45357;-81
2024/03/07 04:52:39;;;;;;;;;0.00;0.00;;;;;9.49;100.00;101776.69;5138269;27;45427;-81
2024/03/07 04:55:08;;;;;;;;;0.00;0.00;;;;;9.51;100.00;101774.94;5137394;27;45307;-80
2024/03/07 04:57:39;;;;;;;;;0.00;0.00;;;;;9.50;100.00;101775.81;5138172;27;45463;-81
2024/03/07 05:00:18;;;;;;;;;0.00;0.00;;;;;9.53;100.00;101774.91;5137245;27;45384;-81
2024/03/07 05:02:47;;;;;;;;;0.00;0.00;;;;;9.50;100.00;101781.88;5123823;27;45483;-81
2024/03/07 05:05:12;;;;;;;;;0.00;0.00;;;;;9.49;100.00;101772.38;5117362;27;46317;-80
2024/03/07 05:07:38;;;;;;;;;0.00;0.00;;;;;9.48;100.00;101781.03;5115732;27;45495;-81
2024/03/07 05:10:04;;;;;;;;;0.00;0.00;;;;;9.48;100.00;101780.16;5116088;27;45647;-82
2024/03/07 05:12:31;;;;;;;;;0.00;0.00;;;;;9.43;100.00;101784.53;5115916;27;45520;-80
2024/03/07 05:14:57;;;;;;;;;3.00;3.00;;;;;9.42;100.00;101782.81;5115665;27;45425;-80
2024/03/07 05:17:22;;;;;;;;;0.00;0.00;;;;;9.42;100.00;101782.81;5097082;27;73772;-81
2024/03/07 05:19:49;;;;;;;;;0.00;0.00;;;;;9.43;100.00;101782.78;5115810;27;67856;-81
2024/03/07 05:22:16;;;;;;;;;0.00;0.00;;;;;9.42;100.00;101775.88;5116958;27;45270;-81
2024/03/07 05:24:42;;;;;;;;;0.00;0.00;;;;;9.39;100.00;101778.50;5115715;27;47624;-81
2024/03/07 05:27:11;;;;;;;;;0.00;0.00;;;;;9.37;100.00;101776.78;5115598;27;45412;-80
2024/03/07 05:29:37;;;;;;;;;0.00;0.00;;;;;9.36;100.00;101773.34;5129131;27;45433;-81
2024/03/07 05:32:25;;;;;;;;;0.00;0.00;;;;;9.33;100.00;101775.09;5137434;27;45342;-81
2024/03/07 05:34:50;;;;;;;;;0.00;0.00;;;;;9.31;100.00;101772.50;5119325;27;46246;-80
2024/03/07 05:37:16;;;;;;;;;0.00;0.00;;;;;9.30;100.00;101768.16;5119028;27;45461;-81
2024/03/07 05:39:41;;;;;;;;;0.00;0.00;;;;;9.30;100.00;101775.94;5137532;27;45335;-81
2024/03/07 05:42:07;;;;;;;;;0.00;0.00;;;;;9.29;100.00;101766.44;5136787;27;68732;-80
2024/03/07 05:44:32;;;;;;;;;0.00;0.00;;;;;9.32;100.00;101773.34;5137510;27;46356;-80
2024/03/07 05:46:58;;;;;;;;;0.00;0.00;;;;;9.30;100.00;101765.56;5137183;27;45432;-81
2024/03/07 05:49:24;;;;;;;;;0.00;0.00;;;;;9.29;100.00;101769.06;5119027;27;45471;-81
2024/03/07 05:51:49;;;;;;;;;0.00;0.00;;;;;9.25;100.00;101769.94;5135217;27;45390;-80
2024/03/07 05:54:14;;;;;;;;;0.00;0.00;;;;;9.21;100.00;101765.63;5118105;27;73351;-79
2024/03/07 05:56:40;;;;;;;;;0.00;0.00;;;;;9.22;100.00;101763.03;5136729;27;61872;-81
2024/03/07 05:59:09;;;;;;;;;0.00;0.00;;;;;9.21;100.00;101768.22;5137534;27;45430;-80
2024/03/07 06:01:38;;;;;;;;;0.00;0.00;;;;;9.17;100.00;101767.38;5137065;27;45339;-80
2024/03/07 06:04:08;;;;;;;;;0.00;0.00;;;;;9.18;100.00;101773.47;5119326;27;47144;-80
2024/03/07 06:06:35;;;;;;;;;0.00;0.00;;;;;9.15;100.00;101769.13;5140162;27;46866;-80
2024/03/07 06:09:03;;;;;;;;;0.00;0.00;;;;;9.15;100.00;101768.28;5125459;27;45478;-81
2024/03/07 06:11:28;;;;;;;;;0.00;0.00;;;;;9.11;100.00;101768.28;5106751;27;45377;-80
2024/03/07 06:13:53;;;;;;;;;0.00;0.00;;;;;9.09;100.00;101762.25;5122954;27;71493;-81
2024/03/07 06:16:20;;;;;;;;;7.50;7.50;;;;;9.07;100.00;101758.78;5123121;27;45548;-81
2024/03/07 06:18:47;;;;;;;;;0.00;0.00;;;;;9.05;100.00;101754.50;5141221;27;45299;-83
2024/03/07 06:21:13;;;;;;;;;0.00;0.00;;;;;9.04;100.00;101755.34;5122821;27;45510;-82
2024/03/07 06:23:38;;;;;;;;;0.00;0.00;;;;;9.03;100.00;101751.03;5121480;27;45640;-82
2024/03/07 06:26:12;;;;;;;;;0.00;0.00;;;;;9.03;100.00;101753.63;5105609;27;45367;-80
2024/03/07 06:28:38;;;;;;;;;0.00;0.00;;;;;9.00;100.00;101749.31;5123790;27;45435;-82
2024/03/07 06:31:07;;;;;;;;;0.00;0.00;;;;;9.01;100.00;101756.25;5125626;27;45383;-82
2024/03/07 06:33:33;;;;;;;;;0.00;0.00;;;;;9.01;100.00;101755.38;5102929;27;46946;-84
2024/03/07 06:36:03;;;;;;;;;0.00;0.00;;;;;9.00;100.00;101749.31;5121372;27;45364;-86
2024/03/07 06:38:29;;;;;;;;;4.00;4.00;;;;;9.03;100.00;101751.03;5103377;27;45428;-87
2024/03/07 06:41:02;;;;;;;;;0.00;0.00;;;;;9.06;100.00;101753.59;5102333;27;45384;-84
2024/03/07 06:43:29;;;;;;;;;0.00;0.00;;;;;9.07;100.00;101753.59;5120224;27;45325;-87
2024/03/07 06:45:54;;;;;;;;;0.00;0.00;;;;;9.08;100.00;101744.94;5101728;27;45512;-84
2024/03/07 06:48:20;;;;;;;;;0.00;0.00;;;;;9.18;100.00;101750.09;5119698;27;45191;-84
2024/03/07 06:50:46;;;;;;;;;0.00;0.00;;;;;9.09;100.00;101748.41;5126958;27;45420;-86
2024/03/07 06:53:11;;;;;;;;;0.00;0.00;;;;;9.14;100.00;101748.34;5101844;27;45408;-88
2024/03/07 06:55:39;;;;;;;;;0.00;0.00;;;;;9.12;100.00;101743.19;5114600;27;45490;-89
2024/03/07 06:58:06;;;;;;;;;0.00;0.00;;;;;9.17;100.00;101743.16;5123210;27;45378;-87
2024/03/07 07:00:45;;;;;;;;;;;;;;;;;;;;;
2024/03/07 07:03:14;;;;;;;;;0.00;0.00;;;;;9.21;100.00;101739.66;5118407;27;75373;-88
2024/03/07 07:05:40;;;;;;;;;0.00;0.00;;;;;9.27;100.00;101742.22;5102281;27;45372;-85
2024/03/07 07:08:07;;;;;;;;;0.00;0.00;;;;;9.28;100.00;101742.19;5119704;27;45458;-85
2024/03/07 07:10:33;;;;;;;;;0.00;0.00;;;;;9.29;100.00;101737.88;5100795;27;45758;-85
2024/03/07 07:13:00;;;;;;;;;0.00;0.00;;;;;9.36;100.00;101739.56;5118732;27;47142;-86
2024/03/07 07:15:26;;;;;;;;;0.00;0.00;;;;;9.41;100.00;101737.75;5100490;27;45472;-82
2024/03/07 07:17:52;;;;;;;;;0.00;0.00;;;;;9.42;100.00;101738.66;5117776;27;64601;-81
2024/03/07 07:20:18;;;;;;;;;0.00;0.00;;;;;9.46;100.00;101729.94;5120232;27;45377;-83
2024/03/07 07:22:48;;;;;;;;;0.25;0.25;;;;;9.59;100.00;101738.50;5121189;27;46387;-84
2024/03/07 07:25:14;;;;;;;;;0.00;0.00;;;;;9.66;100.00;101722.81;5139535;27;45430;-83
2024/03/07 07:27:45;;;;;;;;;0.00;0.00;;;;;9.73;100.00;101722.75;5139209;27;45406;-83
2024/03/07 07:30:11;;;;;;;;;0.00;0.00;;;;;9.81;100.00;101723.56;5121717;27;45330;-82
2024/03/07 07:32:37;;;;;;;;;0.00;0.00;;;;;9.85;100.00;101717.44;5118476;27;46369;-83
2024/03/07 07:35:03;;;;;;;;;0.00;0.00;;;;;9.83;100.00;101711.41;5118732;27;45451;-83
2024/03/07 07:37:29;;;;;;;;;0.00;0.00;;;;;9.81;100.00;101713.16;5119411;27;45363;-83
2024/03/07 07:39:54;;;;;;;;;0.00;0.00;;;;;9.81;100.00;101714.00;5138434;27;63159;-82
2024/03/07 07:42:20;;;;;;;;;0.00;0.00;;;;;9.86;100.00;101721.75;5138166;27;63506;-82
2024/03/07 07:44:45;;;;;;;;;0.00;0.00;;;;;9.88;100.00;101725.22;5138938;27;45275;-82
2024/03/07 07:47:11;;;;;;;;;3.00;3.00;;;;;9.87;100.00;101713.94;5139275;27;49354;-83
2024/03/07 07:49:38;;;;;;;;;0.00;0.00;;;;;9.93;100.00;101710.41;5138292;27;57996;-82
2024/03/07 07:52:05;;;;;;;;;0.00;0.00;;;;;9.96;100.00;101706.94;5120242;27;45609;-83
2024/03/07 07:54:30;;;;;;;;;0.00;0.00;;;;;9.97;100.00;101698.22;5121247;27;45368;-84
2024/03/07 07:56:57;;;;;;;;;0.00;0.00;;;;;10.01;100.00;101698.19;5138162;27;45379;-84
2024/03/07 07:59:22;;;;;;;;;3.00;3.00;;;;;10.00;100.00;101696.47;5119997;27;66032;-86
2024/03/07 08:01:47;;;;;;;;;0.00;0.00;;;;;10.03;100.00;101691.25;5120696;27;46977;-84
2024/03/07 08:04:13;;;;;;;;;0.00;0.00;;;;;10.08;100.00;101688.56;5119527;27;47433;-82
2024/03/07 08:06:38;;;;;;;;;0.00;0.00;;;;;10.25;100.00;101688.38;5138135;27;63678;-84
2024/03/07 08:09:07;;;;;;;;;0.00;0.00;;;;;10.27;100.00;101690.09;5139080;27;45379;-85
2024/03/07 08:11:32;;;;;;;;;0.00;0.00;;;;;10.28;100.00;101685.72;5139326;27;46441;-85
2024/03/07 08:13:57;;;;;;;;;0.00;0.00;;;;;10.37;100.00;101690.00;5137208;27;61607;-85
2024/03/07 08:16:26;;;;;;;;;0.00;0.00;;;;;10.42;100.00;101685.59;5138950;27;46926;-84
2024/03/07 08:18:51;;;;;;;;;0.00;0.00;;;;;10.53;100.00;101673.31;5141706;27;45377;-85
2024/03/07 08:21:17;;;;;;;;;0.00;0.00;;;;;10.59;100.00;101677.56;5145539;27;46183;-83
2024/03/07 08:23:42;;;;;;;;;0.00;0.00;;;;;10.63;100.00;101674.88;5114655;27;46673;-85
2024/03/07 08:26:08;;;;;;;;;0.00;0.00;;;;;10.69;100.00;101667.88;5134822;27;45690;-83
2024/03/07 08:28:33;;;;;;;;;0.00;0.00;;;;;10.75;100.00;101662.56;5110968;27;45534;-83
2024/03/07 08:31:06;;;;;;;;;0.00;0.00;;;;;10.81;100.00;101659.88;5108857;27;45951;-84
2024/03/07 08:33:33;;;;;;;;;0.00;0.00;;;;;10.82;100.00;101661.59;5119539;27;58760;-85
2024/03/07 08:35:59;;;;;;;;;0.00;0.00;;;;;10.85;100.00;101657.19;5099549;27;45454;-83
2024/03/07 08:38:27;;;;;;;;;0.00;0.00;;;;;10.87;100.00;101646.75;5113166;27;45336;-82
2024/03/07 08:40:52;;;;;;;;;2.00;2.00;;;;;10.93;100.00;101645.81;5117860;27;47141;-81
2024/03/07 08:43:18;;;;;;;;;0.00;0.00;;;;;10.97;100.00;101643.09;5137290;27;45473;-84
2024/03/07 08:46:06;;;;;;;;;0.00;0.00;;;;;11.07;100.00;101646.44;5119093;27;45369;-88
2024/03/07 08:48:32;;;;;;;;;0.00;0.00;;;;;11.17;100.00;101649.75;5114830;27;45281;-85
2024/03/07 08:51:00;;;;;;;;;0.00;0.00;;;;;11.25;100.00;101655.69;5110148;27;46842;-87
2024/03/07 08:53:25;;;;;;;;;0.00;0.00;;;;;11.32;100.00;101649.47;5104486;27;45730;-83
2024/03/07 08:55:51;;;;;;;;;0.00;0.00;;;;;11.40;100.00;101650.22;5131874;27;45465;-84
2024/03/07 08:58:16;;;;;;;;;1.00;1.00;;;;;11.47;100.00;101650.09;5111954;27;57202;-82
2024/03/07 09:00:41;;;;;;;;;0.00;0.00;;;;;11.56;100.00;101649.94;5133350;27;63169;-84
2024/03/07 09:03:09;;;;;;;;;0.00;0.00;;;;;11.60;100.00;101643.78;5133284;27;45470;-84
2024/03/07 09:05:35;;;;;;;;;0.50;0.50;;;;;11.72;100.00;101643.56;5131191;27;45474;-84
2024/03/07 09:08:00;;;;;;;;;0.00;0.00;;;;;11.79;100.00;101645.16;5130542;27;45501;-81
2024/03/07 09:10:29;;;;;;;;;0.00;0.00;;;;;11.89;100.00;101644.97;5119132;27;48165;-83
2024/03/07 09:12:55;;;;;;;;;0.00;0.00;;;;;11.93;100.00;101641.44;5118644;27;45448;-86
2024/03/07 09:15:21;;;;;;;;;1.00;1.00;;;;;12.05;100.00;101643.78;5092217;27;62544;-81
2024/03/07 09:17:47;;;;;;;;;0.00;0.00;;;;;12.17;100.00;101640.06;5098167;27;45546;-80
2024/03/07 09:20:16;;;;;;;;;0.00;0.00;;;;;12.25;100.00;101650.34;5098331;27;45789;-79
2024/03/07 09:22:44;;;;;;;;;0.00;0.00;;;;;12.32;100.00;101631.91;5130858;27;45474;-82
2024/03/07 09:25:13;;;;;;;;;0.00;0.00;;;;;12.44;100.00;101635.13;5119011;27;45661;-81
2024/03/07 09:27:40;;;;;;;;;0.00;0.00;;;;;12.53;100.00;101627.09;5121704;27;45319;-83
2024/03/07 09:30:11;;;;;;;;;0.00;0.00;;;;;12.64;100.00;101630.31;5137219;27;46655;-83
2024/03/07 09:32:40;;;;;;;;;0.00;0.00;;;;;12.71;100.00;101624.06;5109197;27;45564;-84
2024/03/07 09:35:07;;;;;;;;;0.00;0.00;;;;;12.83;100.00;101632.50;5099648;27;45557;-85
2024/03/07 09:37:32;;;;;;;;;0.00;0.00;;;;;12.90;100.00;101621.00;5115587;27;45269;-82
2024/03/07 09:39:58;;;;;;;;;1.00;1.00;;;;;13.03;100.00;101618.94;5111705;27;48296;-82
2024/03/07 09:42:25;;;;;;;;;0.00;0.00;;;;;13.12;100.00;101610.88;5139706;27;68328;-85
2024/03/07 09:44:54;;;;;;;;;0.00;0.00;;;;;13.26;100.00;101613.13;5107456;27;45460;-86
2024/03/07 09:47:20;;;;;;;;;0.00;0.00;;;;;13.37;100.00;101598.03;5104990;27;45385;-84
2024/03/07 09:49:46;;;;;;;;;0.00;0.00;;;;;13.45;100.00;101597.84;5137487;27;68167;-85
2024/03/07 09:52:15;;;;;;;;;0.00;0.00;;;;;13.54;100.00;101598.44;5122565;27;45532;-88
2024/03/07 09:55:00;;;;;;;;;0.00;0.00;;;;;13.63;100.00;101597.34;5115235;27;45537;-87
2024/03/07 09:57:27;;;;;;;;;3.00;3.00;;;;;13.72;100.00;101583.13;5129824;27;45394;-85
2024/03/07 09:59:57;;;;;;;;;0.00;0.00;;;;;13.84;100.00;101568.84;5117301;27;47138;-83
2024/03/07 10:02:23;;;;;;;;;0.00;0.00;;;;;13.91;100.00;101567.75;5140308;27;45326;-87
2024/03/07 10:04:54;;;;;;;;;1.00;1.00;;;;;14.03;100.00;101563.91;5105664;27;45316;-86
2024/03/07 10:07:19;;;;;;;;;2.00;1.50;;;;;14.12;100.00;101561.88;5083392;27;45477;-86
2024/03/07 10:09:45;;;;;;;;;0.00;0.00;;;;;14.20;100.00;101559.00;5119920;27;45419;-87
2024/03/07 10:12:15;;;;;;;;;0.00;0.00;;;;;14.33;100.00;101559.50;5119189;27;45365;-87
2024/03/07 10:14:50;;;;;;;;;0.00;0.00;;;;;14.49;100.00;101565.97;5120348;27;45412;-87
2024/03/07 10:17:18;;;;;;;;;0.00;0.00;;;;;14.57;100.00;101557.00;5136915;27;45351;-86
2024/03/07 10:19:50;;;;;;;;;3.50;3.50;;;;;14.76;100.00;101565.13;5119873;27;46806;-88
2024/03/07 10:22:17;;;;;;;;;0.00;0.00;;;;;14.82;100.00;101557.06;5118437;27;45449;-88
2024/03/07 10:24:58;;;;;;;;;0.00;0.00;;;;;14.99;100.00;101546.88;5106702;27;45403;-88
2024/03/07 10:27:30;;;;;;;;;0.00;0.00;;;;;15.09;100.00;101556.13;5099668;27;45325;-85
2024/03/07 10:29:55;;;;;;;;;0.00;0.00;;;;;15.11;100.00;101561.31;5118356;27;47465;-85
2024/03/07 10:32:22;;;;;;;;;0.00;0.00;;;;;15.26;100.00;101549.44;5128351;27;45404;-85
2024/03/07 10:34:50;;;;;;;;;0.00;0.00;;;;;15.43;100.00;101544.44;5127532;27;45339;-85
2024/03/07 10:37:16;;;;;;;;;0.00;0.00;;;;;15.57;100.00;101540.47;5109749;27;45557;-85
2024/03/07 10:39:46;;;;;;;;;0.00;0.00;;;;;15.72;100.00;101544.28;5126863;27;46042;-86
2024/03/07 10:42:15;;;;;;;;;0.00;0.00;;;;;15.85;100.00;101542.94;5121959;27;45278;-86
2024/03/07 10:44:47;;;;;;;;;0.00;0.00;;;;;15.98;100.00;101538.06;5117558;27;45303;-86
2024/03/07 10:47:21;;;;;;;;;0.00;0.00;;;;;16.08;100.00;101531.53;5101589;27;45484;-86
2024/03/07 10:50:14;;;;;;;;;3.00;0.00;;;;;16.20;100.00;101538.09;5115137;27;46210;-87
2024/03/07 10:53:00;;;;;;;;;0.00;0.00;;;;;16.44;100.00;101526.56;5097319;27;45311;-86
2024/03/07 10:55:41;;;;;;;;;4.00;4.00;;;;;16.60;100.00;101520.69;5110560;27;45363;-88
2024/03/07 10:58:12;;;;;;;;;0.00;0.00;;;;;16.69;100.00;101515.03;5107750;27;45482;-86
2024/03/07 11:00:45;;;;;;;;;0.00;0.00;;;;;16.91;100.00;101522.06;5120387;27;47101;-87
2024/03/07 11:03:11;;;;;;;;;0.00;0.00;;;;;17.09;100.00;101515.16;5119628;27;45343;-88
2024/03/07 11:05:39;;;;;;;;;0.00;0.00;;;;;17.28;100.00;101513.41;5098054;27;45457;-88
2024/03/07 11:08:12;;;;;;;;;0.00;0.00;;;;;17.45;100.00;101507.38;5115093;27;45957;-85
2024/03/07 11:10:38;;;;;;;;;0.00;0.00;;;;;17.61;100.00;101500.47;5108242;27;46444;-86
2024/03/07 11:13:05;;;;;;;;;0.00;0.00;;;;;17.81;100.00;101509.22;5115517;27;45487;-85
2024/03/07 11:15:34;;;;;;;;;0.00;0.00;;;;;17.88;100.00;101494.88;5112561;27;45562;-86
2024/03/07 11:21:07;;;;;;;;;0.00;0.00;;;;;18.28;100.00;101494.75;5075720;28;46547;-88
2024/03/07 11:23:53;;;;;;;;;;;;;;;;;;;;;
2024/03/07 11:26:26;;;;;;;;;0.00;0.00;;;;;18.83;100.00;101485.84;5075446;27;69298;-87